sensor_id;sensor_type;location;lat;lon;timestamp;temperature;humidity
9849;DHT22;4963;51.444;6.528;2023-10-08T00:01:44;18.10;99.90
9849;DHT22;4963;51.444;6.528;2023-10-08T00:04:11;18.10;99.90
9849;DHT22;4963;51.444;6.528;2023-10-08T00:06:44;18.00;99.90
9849;DHT22;4963;51.444;6.528;2023-10-08T00:09:12;18.00;99.90
9849;DHT22;4963;51.444;6.528;2023-10-08T00:11:40;17.90;99.90
9849;DHT22;4963;51.444;6.528;2023-10-08T00:14:08;18.00;99.90
9849;DHT22;4963;51.444;6.528;2023-10-08T00:16:37;17.90;99.90
9849;DHT22;4963;51.444;6.528;2023-10-08T00:19:06;17.90;99.90
9849;DHT22;4963;51.444;6.528;2023-10-08T00:21:39;17.90;99.90
9849;DHT22;4963;51.444;6.528;2023-10-08T00:24:07;17.90;99.90
9849;DHT22;4963;51.444;6.528;2023-10-08T00:26:34;17.90;99.90
9849;DHT22;4963;51.444;6.528;2023-10-08T00:29:06;17.90;99.90
9849;DHT22;4963;51.444;6.528;2023-10-08T00:31:43;17.90;99.90
9849;DHT22;4963;51.444;6.528;2023-10-08T00:34:11;17.90;99.90
9849;DHT22;4963;51.444;6.528;2023-10-08T00:36:39;17.90;99.90
9849;DHT22;4963;51.444;6.528;2023-10-08T00:39:07;17.90;99.90
9849;DHT22;4963;51.444;6.528;2023-10-08T00:41:40;17.90;99.90
9849;DHT22;4963;51.444;6.528;2023-10-08T00:44:08;17.80;99.90
9849;DHT22;4963;51.444;6.528;2023-10-08T00:46:38;17.80;99.90
9849;DHT22;4963;51.444;6.528;2023-10-08T00:49:09;17.80;99.90
9849;DHT22;4963;51.444;6.528;2023-10-08T00:51:50;17.80;99.90
9849;DHT22;4963;51.444;6.528;2023-10-08T00:54:29;17.70;99.90
9849;DHT22;4963;51.444;6.528;2023-10-08T00:56:59;17.70;99.90
9849;DHT22;4963;51.444;6.528;2023-10-08T00:59:32;17.70;99.90
9849;DHT22;4963;51.444;6.528;2023-10-08T01:02:07;17.70;99.90
9849;DHT22;4963;51.444;6.528;2023-10-08T01:04:42;17.70;99.90
9849;DHT22;4963;51.444;6.528;2023-10-08T01:07:11;17.70;99.90
9849;DHT22;4963;51.444;6.528;2023-10-08T01:09:41;17.80;99.90
9849;DHT22;4963;51.444;6.528;2023-10-08T01:12:14;17.80;99.90
9849;DHT22;4963;51.444;6.528;2023-10-08T01:14:44;17.70;99.90
9849;DHT22;4963;51.444;6.528;2023-10-08T01:17:13;17.70;99.90
9849;DHT22;4963;51.444;6.528;2023-10-08T01:19:43;17.60;99.90
9849;DHT22;4963;51.444;6.528;2023-10-08T01:22:12;17.60;99.90
9849;DHT22;4963;51.444;6.528;2023-10-08T01:24:44;17.50;99.90
9849;DHT22;4963;51.444;6.528;2023-10-08T01:27:11;17.50;99.90
9849;DHT22;4963;51.444;6.528;2023-10-08T01:29:38;17.50;99.90
9849;DHT22;4963;51.444;6.528;2023-10-08T01:32:09;17.50;99.90
9849;DHT22;4963;51.444;6.528;2023-10-08T01:34:37;17.50;99.90
9849;DHT22;4963;51.444;6.528;2023-10-08T01:37:04;17.50;99.90
9849;DHT22;4963;51.444;6.528;2023-10-08T01:39:37;17.50;99.90
9849;DHT22;4963;51.444;6.528;2023-10-08T01:42:05;17.50;99.90
9849;DHT22;4963;51.444;6.528;2023-10-08T01:44:32;17.50;99.90
9849;DHT22;4963;51.444;6.528;2023-10-08T01:47:00;17.40;99.90
9849;DHT22;4963;51.444;6.528;2023-10-08T01:49:29;17.40;99.90
9849;DHT22;4963;51.444;6.528;2023-10-08T01:51:59;17.40;99.90
9849;DHT22;4963;51.444;6.528;2023-10-08T01:54:32;17.40;99.90
9849;DHT22;4963;51.444;6.528;2023-10-08T01:57:02;17.30;99.90
9849;DHT22;4963;51.444;6.528;2023-10-08T01:59:31;17.40;99.90
9849;DHT22;4963;51.444;6.528;2023-10-08T02:01:59;17.30;99.90
9849;DHT22;4963;51.444;6.528;2023-10-08T02:04:26;17.40;99.90
9849;DHT22;4963;51.444;6.528;2023-10-08T02:06:53;17.30;99.90
9849;DHT22;4963;51.444;6.528;2023-10-08T02:09:20;17.30;99.90
9849;DHT22;4963;51.444;6.528;2023-10-08T02:11:52;17.30;99.90
9849;DHT22;4963;51.444;6.528;2023-10-08T02:14:21;17.30;99.90
9849;DHT22;4963;51.444;6.528;2023-10-08T02:16:49;17.30;99.90
9849;DHT22;4963;51.444;6.528;2023-10-08T02:19:20;17.30;99.90
9849;DHT22;4963;51.444;6.528;2023-10-08T02:21:52;17.30;99.90
9849;DHT22;4963;51.444;6.528;2023-10-08T02:24:20;17.30;99.90
9849;DHT22;4963;51.444;6.528;2023-10-08T02:26:50;17.20;99.90
9849;DHT22;4963;51.444;6.528;2023-10-08T02:29:17;17.30;99.90
9849;DHT22;4963;51.444;6.528;2023-10-08T02:31:45;17.20;99.90
9849;DHT22;4963;51.444;6.528;2023-10-08T02:34:13;17.20;99.90
9849;DHT22;4963;51.444;6.528;2023-10-08T02:36:41;17.20;99.90
9849;DHT22;4963;51.444;6.528;2023-10-08T02:39:08;17.20;99.90
9849;DHT22;4963;51.444;6.528;2023-10-08T02:41:43;17.20;99.90
9849;DHT22;4963;51.444;6.528;2023-10-08T02:44:12;17.20;99.90
9849;DHT22;4963;51.444;6.528;2023-10-08T02:46:41;17.20;99.90
9849;DHT22;4963;51.444;6.528;2023-10-08T02:49:11;17.20;99.90
9849;DHT22;4963;51.444;6.528;2023-10-08T02:51:39;17.10;99.90
9849;DHT22;4963;51.444;6.528;2023-10-08T02:54:07;17.10;99.90
9849;DHT22;4963;51.444;6.528;2023-10-08T02:56:42;17.00;99.90
9849;DHT22;4963;51.444;6.528;2023-10-08T02:59:10;17.00;99.90
9849;DHT22;4963;51.444;6.528;2023-10-08T03:01:38;17.00;99.90
9849;DHT22;4963;51.444;6.528;2023-10-08T03:04:06;17.00;99.90
9849;DHT22;4963;51.444;6.528;2023-10-08T03:06:45;17.00;99.90
9849;DHT22;4963;51.444;6.528;2023-10-08T03:09:16;17.00;99.90
9849;DHT22;4963;51.444;6.528;2023-10-08T03:11:47;17.00;99.90
9849;DHT22;4963;51.444;6.528;2023-10-08T03:14:14;17.00;99.90
9849;DHT22;4963;51.444;6.528;2023-10-08T03:16:48;17.00;99.90
9849;DHT22;4963;51.444;6.528;2023-10-08T03:19:16;17.00;99.90
9849;DHT22;4963;51.444;6.528;2023-10-08T03:21:46;17.00;99.90
9849;DHT22;4963;51.444;6.528;2023-10-08T03:24:17;17.00;99.90
9849;DHT22;4963;51.444;6.528;2023-10-08T03:27:03;16.90;99.90
9849;DHT22;4963;51.444;6.528;2023-10-08T03:29:38;16.90;99.90
9849;DHT22;4963;51.444;6.528;2023-10-08T03:32:08;16.90;99.90
9849;DHT22;4963;51.444;6.528;2023-10-08T03:34:44;16.80;99.90
9849;DHT22;4963;51.444;6.528;2023-10-08T03:37:13;16.90;99.90
9849;DHT22;4963;51.444;6.528;2023-10-08T03:39:46;16.90;99.90
9849;DHT22;4963;51.444;6.528;2023-10-08T03:42:26;16.90;99.90
9849;DHT22;4963;51.444;6.528;2023-10-08T03:45:00;16.90;99.90
9849;DHT22;4963;51.444;6.528;2023-10-08T03:47:36;16.80;99.90
9849;DHT22;4963;51.444;6.528;2023-10-08T03:50:05;16.80;99.90
9849;DHT22;4963;51.444;6.528;2023-10-08T03:52:34;16.80;99.90
9849;DHT22;4963;51.444;6.528;2023-10-08T03:55:03;16.80;99.90
9849;DHT22;4963;51.444;6.528;2023-10-08T03:57:32;16.80;99.90
9849;DHT22;4963;51.444;6.528;2023-10-08T04:00:14;16.80;99.90
9849;DHT22;4963;51.444;6.528;2023-10-08T04:02:44;16.80;99.90
9849;DHT22;4963;51.444;6.528;2023-10-08T04:05:20;16.70;99.90
9849;DHT22;4963;51.444;6.528;2023-10-08T04:07:54;16.70;99.90
9849;DHT22;4963;51.444;6.528;2023-10-08T04:10:42;16.70;99.90
9849;DHT22;4963;51.444;6.528;2023-10-08T04:13:26;16.70;99.90
9849;DHT22;4963;51.444;6.528;2023-10-08T04:15:56;16.70;99.90
9849;DHT22;4963;51.444;6.528;2023-10-08T04:18:23;16.70;99.90
9849;DHT22;4963;51.444;6.528;2023-10-08T04:20:50;16.70;99.90
9849;DHT22;4963;51.444;6.528;2023-10-08T04:23:32;16.70;99.90
9849;DHT22;4963;51.444;6.528;2023-10-08T04:25:59;16.60;99.90
9849;DHT22;4963;51.444;6.528;2023-10-08T04:28:26;16.60;99.90
9849;DHT22;4963;51.444;6.528;2023-10-08T04:31:00;16.60;99.90
9849;DHT22;4963;51.444;6.528;2023-10-08T04:33:41;16.70;99.90
9849;DHT22;4963;51.444;6.528;2023-10-08T04:36:08;16.70;99.90
9849;DHT22;4963;51.444;6.528;2023-10-08T04:38:36;16.70;99.90
9849;DHT22;4963;51.444;6.528;2023-10-08T04:41:06;16.60;99.90
9849;DHT22;4963;51.444;6.528;2023-10-08T04:43:35;16.60;99.90
9849;DHT22;4963;51.444;6.528;2023-10-08T04:46:04;16.60;99.90
9849;DHT22;4963;51.444;6.528;2023-10-08T04:48:44;16.60;99.90
9849;DHT22;4963;51.444;6.528;2023-10-08T04:51:11;16.60;99.90
9849;DHT22;4963;51.444;6.528;2023-10-08T04:53:41;16.60;99.90
9849;DHT22;4963;51.444;6.528;2023-10-08T04:56:11;16.60;99.90
9849;DHT22;4963;51.444;6.528;2023-10-08T04:58:43;16.60;99.90
9849;DHT22;4963;51.444;6.528;2023-10-08T05:01:13;16.50;99.90
9849;DHT22;4963;51.444;6.528;2023-10-08T05:03:47;16.50;99.90
9849;DHT22;4963;51.444;6.528;2023-10-08T05:06:33;16.50;99.90
9849;DHT22;4963;51.444;6.528;2023-10-08T05:09:15;16.50;99.90
9849;DHT22;4963;51.444;6.528;2023-10-08T05:11:50;16.40;99.90
9849;DHT22;4963;51.444;6.528;2023-10-08T05:14:31;16.40;99.90
9849;DHT22;4963;51.444;6.528;2023-10-08T05:17:06;16.40;99.90
9849;DHT22;4963;51.444;6.528;2023-10-08T05:19:35;16.40;99.90
9849;DHT22;4963;51.444;6.528;2023-10-08T05:22:34;16.40;99.90
9849;DHT22;4963;51.444;6.528;2023-10-08T05:25:14;16.40;99.90
9849;DHT22;4963;51.444;6.528;2023-10-08T05:28:00;16.40;99.90
9849;DHT22;4963;51.444;6.528;2023-10-08T05:30:35;16.50;99.90
9849;DHT22;4963;51.444;6.528;2023-10-08T05:33:06;16.50;99.90
9849;DHT22;4963;51.444;6.528;2023-10-08T05:35:39;16.50;99.90
9849;DHT22;4963;51.444;6.528;2023-10-08T05:38:16;16.60;99.90
9849;DHT22;4963;51.444;6.528;2023-10-08T05:40:51;16.50;99.90
9849;DHT22;4963;51.444;6.528;2023-10-08T05:43:34;16.50;99.90
9849;DHT22;4963;51.444;6.528;2023-10-08T05:46:30;16.50;99.90
9849;DHT22;4963;51.444;6.528;2023-10-08T05:49:13;16.50;99.90
9849;DHT22;4963;51.444;6.528;2023-10-08T05:51:58;16.50;99.90
9849;DHT22;4963;51.444;6.528;2023-10-08T05:54:50;16.50;99.90
9849;DHT22;4963;51.444;6.528;2023-10-08T05:57:36;16.50;99.90
9849;DHT22;4963;51.444;6.528;2023-10-08T06:00:06;16.50;99.90
9849;DHT22;4963;51.444;6.528;2023-10-08T06:02:57;16.40;99.90
9849;DHT22;4963;51.444;6.528;2023-10-08T06:05:58;16.40;99.90
9849;DHT22;4963;51.444;6.528;2023-10-08T06:08:45;16.30;99.90
9849;DHT22;4963;51.444;6.528;2023-10-08T06:11:34;16.40;99.90
9849;DHT22;4963;51.444;6.528;2023-10-08T06:14:09;16.40;99.90
9849;DHT22;4963;51.444;6.528;2023-10-08T06:16:54;16.40;99.90
9849;DHT22;4963;51.444;6.528;2023-10-08T06:19:38;16.30;99.90
9849;DHT22;4963;51.444;6.528;2023-10-08T06:22:04;16.40;99.90
9849;DHT22;4963;51.444;6.528;2023-10-08T06:24:31;16.40;99.90
9849;DHT22;4963;51.444;6.528;2023-10-08T06:27:00;16.30;99.90
9849;DHT22;4963;51.444;6.528;2023-10-08T06:29:31;16.30;99.90
9849;DHT22;4963;51.444;6.528;2023-10-08T06:31:58;16.30;99.90
9849;DHT22;4963;51.444;6.528;2023-10-08T06:34:28;16.30;99.90
9849;DHT22;4963;51.444;6.528;2023-10-08T06:36:57;16.30;99.90
9849;DHT22;4963;51.444;6.528;2023-10-08T06:39:25;16.40;99.90
9849;DHT22;4963;51.444;6.528;2023-10-08T06:41:59;16.40;99.90
9849;DHT22;4963;51.444;6.528;2023-10-08T06:44:26;16.40;99.90
9849;DHT22;4963;51.444;6.528;2023-10-08T06:46:54;16.30;99.90
9849;DHT22;4963;51.444;6.528;2023-10-08T06:49:22;16.30;99.90
9849;DHT22;4963;51.444;6.528;2023-10-08T06:51:51;16.30;99.90
9849;DHT22;4963;51.444;6.528;2023-10-08T06:54:19;16.30;99.90
9849;DHT22;4963;51.444;6.528;2023-10-08T06:56:48;16.30;99.90
9849;DHT22;4963;51.444;6.528;2023-10-08T06:59:18;16.20;99.90
9849;DHT22;4963;51.444;6.528;2023-10-08T07:01:45;16.20;99.90
9849;DHT22;4963;51.444;6.528;2023-10-08T07:04:14;16.30;99.90
9849;DHT22;4963;51.444;6.528;2023-10-08T07:06:41;16.30;99.90
9849;DHT22;4963;51.444;6.528;2023-10-08T07:09:10;16.30;99.90
9849;DHT22;4963;51.444;6.528;2023-10-08T07:11:49;16.30;99.90
9849;DHT22;4963;51.444;6.528;2023-10-08T07:14:20;16.30;99.90
9849;DHT22;4963;51.444;6.528;2023-10-08T07:16:48;16.30;99.90
9849;DHT22;4963;51.444;6.528;2023-10-08T07:19:19;16.30;99.90
9849;DHT22;4963;51.444;6.528;2023-10-08T07:21:49;16.30;99.90
9849;DHT22;4963;51.444;6.528;2023-10-08T07:24:20;16.30;99.90
9849;DHT22;4963;51.444;6.528;2023-10-08T07:26:48;16.30;99.90
9849;DHT22;4963;51.444;6.528;2023-10-08T07:29:21;16.30;99.90
9849;DHT22;4963;51.444;6.528;2023-10-08T07:31:50;16.30;99.90
9849;DHT22;4963;51.444;6.528;2023-10-08T07:34:20;16.30;99.90
9849;DHT22;4963;51.444;6.528;2023-10-08T07:36:53;16.30;99.90
9849;DHT22;4963;51.444;6.528;2023-10-08T07:39:21;16.30;99.90
9849;DHT22;4963;51.444;6.528;2023-10-08T07:42:01;16.30;99.90
9849;DHT22;4963;51.444;6.528;2023-10-08T07:44:31;16.30;99.90
9849;DHT22;4963;51.444;6.528;2023-10-08T07:47:01;16.30;99.90
9849;DHT22;4963;51.444;6.528;2023-10-08T07:49:31;16.40;99.90
9849;DHT22;4963;51.444;6.528;2023-10-08T07:51:58;16.40;99.90
9849;DHT22;4963;51.444;6.528;2023-10-08T07:54:26;16.40;99.90
9849;DHT22;4963;51.444;6.528;2023-10-08T07:56:54;16.50;99.90
9849;DHT22;4963;51.444;6.528;2023-10-08T07:59:25;16.50;99.90
9849;DHT22;4963;51.444;6.528;2023-10-08T08:01:52;16.50;99.90
9849;DHT22;4963;51.444;6.528;2023-10-08T08:04:20;16.50;99.90
9849;DHT22;4963;51.444;6.528;2023-10-08T08:06:50;16.60;99.90
9849;DHT22;4963;51.444;6.528;2023-10-08T08:09:18;16.60;99.90
9849;DHT22;4963;51.444;6.528;2023-10-08T08:11:47;16.60;99.90
9849;DHT22;4963;51.444;6.528;2023-10-08T08:14:14;16.70;99.90
9849;DHT22;4963;51.444;6.528;2023-10-08T08:16:43;16.70;99.90
9849;DHT22;4963;51.444;6.528;2023-10-08T08:19:14;16.70;99.90
9849;DHT22;4963;51.444;6.528;2023-10-08T08:21:42;16.70;99.90
9849;DHT22;4963;51.444;6.528;2023-10-08T08:24:12;16.70;99.90
9849;DHT22;4963;51.444;6.528;2023-10-08T08:26:54;16.70;99.90
9849;DHT22;4963;51.444;6.528;2023-10-08T08:29:33;16.70;99.90
9849;DHT22;4963;51.444;6.528;2023-10-08T08:32:09;16.70;99.90
9849;DHT22;4963;51.444;6.528;2023-10-08T08:34:38;16.70;99.90
9849;DHT22;4963;51.444;6.528;2023-10-08T08:37:09;16.70;99.90
9849;DHT22;4963;51.444;6.528;2023-10-08T08:39:38;16.70;99.90
9849;DHT22;4963;51.444;6.528;2023-10-08T08:42:06;16.70;99.90
9849;DHT22;4963;51.444;6.528;2023-10-08T08:44:35;16.60;99.90
9849;DHT22;4963;51.444;6.528;2023-10-08T08:47:05;16.60;99.90
9849;DHT22;4963;51.444;6.528;2023-10-08T08:49:37;16.60;99.90
9849;DHT22;4963;51.444;6.528;2023-10-08T08:52:04;16.70;99.90
9849;DHT22;4963;51.444;6.528;2023-10-08T08:54:31;16.80;99.90
9849;DHT22;4963;51.444;6.528;2023-10-08T08:57:00;16.80;99.90
9849;DHT22;4963;51.444;6.528;2023-10-08T08:59:30;16.80;99.90
9849;DHT22;4963;51.444;6.528;2023-10-08T09:01:58;16.90;99.90
9849;DHT22;4963;51.444;6.528;2023-10-08T09:04:29;16.90;99.90
9849;DHT22;4963;51.444;6.528;2023-10-08T09:06:57;16.90;99.90
9849;DHT22;4963;51.444;6.528;2023-10-08T09:09:31;16.90;99.90
9849;DHT22;4963;51.444;6.528;2023-10-08T09:11:59;17.00;99.90
9849;DHT22;4963;51.444;6.528;2023-10-08T09:14:27;17.00;99.90
9849;DHT22;4963;51.444;6.528;2023-10-08T09:16:57;17.00;99.90
9849;DHT22;4963;51.444;6.528;2023-10-08T09:19:26;16.90;99.90
9849;DHT22;4963;51.444;6.528;2023-10-08T09:22:00;16.90;99.90
9849;DHT22;4963;51.444;6.528;2023-10-08T09:24:29;16.80;99.90
9849;DHT22;4963;51.444;6.528;2023-10-08T09:26:56;16.80;99.90
9849;DHT22;4963;51.444;6.528;2023-10-08T09:29:25;16.70;99.90
9849;DHT22;4963;51.444;6.528;2023-10-08T09:31:53;16.70;99.90
9849;DHT22;4963;51.444;6.528;2023-10-08T09:34:26;16.80;99.90
9849;DHT22;4963;51.444;6.528;2023-10-08T09:36:54;16.80;99.90
9849;DHT22;4963;51.444;6.528;2023-10-08T09:39:22;16.80;99.90
9849;DHT22;4963;51.444;6.528;2023-10-08T09:41:56;16.70;99.90
9849;DHT22;4963;51.444;6.528;2023-10-08T09:44:28;16.50;99.90
9849;DHT22;4963;51.444;6.528;2023-10-08T09:47:02;16.50;99.90
9849;DHT22;4963;51.444;6.528;2023-10-08T09:49:31;16.40;99.90
9849;DHT22;4963;51.444;6.528;2023-10-08T09:52:03;16.40;99.90
9849;DHT22;4963;51.444;6.528;2023-10-08T09:54:43;16.30;99.90
9849;DHT22;4963;51.444;6.528;2023-10-08T09:57:11;16.20;99.90
9849;DHT22;4963;51.444;6.528;2023-10-08T09:59:40;16.20;99.90
9849;DHT22;4963;51.444;6.528;2023-10-08T10:02:08;16.20;99.90
9849;DHT22;4963;51.444;6.528;2023-10-08T10:04:42;16.20;99.90
9849;DHT22;4963;51.444;6.528;2023-10-08T10:07:10;16.30;99.90
9849;DHT22;4963;51.444;6.528;2023-10-08T10:09:38;16.20;99.90
9849;DHT22;4963;51.444;6.528;2023-10-08T10:12:11;16.20;99.90
9849;DHT22;4963;51.444;6.528;2023-10-08T10:14:43;16.30;99.90
9849;DHT22;4963;51.444;6.528;2023-10-08T10:17:13;16.30;99.90
9849;DHT22;4963;51.444;6.528;2023-10-08T10:19:42;16.30;99.90
9849;DHT22;4963;51.444;6.528;2023-10-08T10:22:13;16.30;99.90
9849;DHT22;4963;51.444;6.528;2023-10-08T10:24:42;16.30;99.90
9849;DHT22;4963;51.444;6.528;2023-10-08T10:27:12;16.40;99.90
9849;DHT22;4963;51.444;6.528;2023-10-08T10:29:41;16.40;99.90
9849;DHT22;4963;51.444;6.528;2023-10-08T10:32:11;16.50;99.90
9849;DHT22;4963;51.444;6.528;2023-10-08T10:34:39;16.50;99.90
9849;DHT22;4963;51.444;6.528;2023-10-08T10:37:07;16.40;99.90
9849;DHT22;4963;51.444;6.528;2023-10-08T10:39:50;16.50;99.90
9849;DHT22;4963;51.444;6.528;2023-10-08T10:42:19;16.50;99.90
9849;DHT22;4963;51.444;6.528;2023-10-08T10:44:49;16.50;99.90
9849;DHT22;4963;51.444;6.528;2023-10-08T10:47:17;16.50;99.90
9849;DHT22;4963;51.444;6.528;2023-10-08T10:49:53;16.50;99.90
9849;DHT22;4963;51.444;6.528;2023-10-08T10:52:35;16.50;99.90
9849;DHT22;4963;51.444;6.528;2023-10-08T10:55:18;16.50;99.90
9849;DHT22;4963;51.444;6.528;2023-10-08T10:57:47;16.50;99.90
9849;DHT22;4963;51.444;6.528;2023-10-08T11:00:23;16.50;99.90
9849;DHT22;4963;51.444;6.528;2023-10-08T11:03:07;16.50;99.90
9849;DHT22;4963;51.444;6.528;2023-10-08T11:05:46;16.50;99.90
9849;DHT22;4963;51.444;6.528;2023-10-08T11:08:18;16.50;99.90
9849;DHT22;4963;51.444;6.528;2023-10-08T11:10:47;16.50;99.90
9849;DHT22;4963;51.444;6.528;2023-10-08T11:13:17;16.50;99.90
9849;DHT22;4963;51.444;6.528;2023-10-08T11:15:48;16.40;99.90
9849;DHT22;4963;51.444;6.528;2023-10-08T11:18:19;16.30;99.90
9849;DHT22;4963;51.444;6.528;2023-10-08T11:20:48;16.30;99.90
9849;DHT22;4963;51.444;6.528;2023-10-08T11:23:33;16.30;99.90
9849;DHT22;4963;51.444;6.528;2023-10-08T11:26:02;16.30;99.90
9849;DHT22;4963;51.444;6.528;2023-10-08T11:28:31;16.20;99.90
9849;DHT22;4963;51.444;6.528;2023-10-08T11:31:02;16.20;99.90
9849;DHT22;4963;51.444;6.528;2023-10-08T11:33:35;16.30;99.90
9849;DHT22;4963;51.444;6.528;2023-10-08T11:36:03;16.30;99.90
9849;DHT22;4963;51.444;6.528;2023-10-08T11:38:38;16.30;99.90
9849;DHT22;4963;51.444;6.528;2023-10-08T11:41:13;16.30;99.90
9849;DHT22;4963;51.444;6.528;2023-10-08T11:43:47;16.30;99.90
9849;DHT22;4963;51.444;6.528;2023-10-08T11:46:21;16.30;99.90
9849;DHT22;4963;51.444;6.528;2023-10-08T11:48:48;16.30;99.90
9849;DHT22;4963;51.444;6.528;2023-10-08T11:51:16;16.40;99.90
9849;DHT22;4963;51.444;6.528;2023-10-08T11:53:49;16.40;99.90
9849;DHT22;4963;51.444;6.528;2023-10-08T11:56:17;16.40;99.90
9849;DHT22;4963;51.444;6.528;2023-10-08T11:58:48;16.40;99.90
9849;DHT22;4963;51.444;6.528;2023-10-08T12:01:17;16.50;99.90
9849;DHT22;4963;51.444;6.528;2023-10-08T12:03:47;16.50;99.90
9849;DHT22;4963;51.444;6.528;2023-10-08T12:06:16;16.50;99.90
9849;DHT22;4963;51.444;6.528;2023-10-08T12:08:45;16.50;99.90
9849;DHT22;4963;51.444;6.528;2023-10-08T12:11:15;16.50;99.90
9849;DHT22;4963;51.444;6.528;2023-10-08T12:13:43;16.60;99.90
9849;DHT22;4963;51.444;6.528;2023-10-08T12:16:14;16.60;99.90
9849;DHT22;4963;51.444;6.528;2023-10-08T12:18:48;16.70;99.90
9849;DHT22;4963;51.444;6.528;2023-10-08T12:21:19;16.70;99.90
9849;DHT22;4963;51.444;6.528;2023-10-08T12:23:47;16.60;99.90
9849;DHT22;4963;51.444;6.528;2023-10-08T12:26:15;16.60;99.90
9849;DHT22;4963;51.444;6.528;2023-10-08T12:28:45;16.60;99.90
9849;DHT22;4963;51.444;6.528;2023-10-08T12:31:14;16.50;99.90
9849;DHT22;4963;51.444;6.528;2023-10-08T12:33:41;16.40;99.90
9849;DHT22;4963;51.444;6.528;2023-10-08T12:36:11;16.40;99.90
9849;DHT22;4963;51.444;6.528;2023-10-08T12:38:39;16.40;99.90
9849;DHT22;4963;51.444;6.528;2023-10-08T12:41:07;16.50;99.90
9849;DHT22;4963;51.444;6.528;2023-10-08T12:43:40;16.50;99.90
9849;DHT22;4963;51.444;6.528;2023-10-08T12:46:11;16.50;99.90
9849;DHT22;4963;51.444;6.528;2023-10-08T12:48:44;16.40;99.90
9849;DHT22;4963;51.444;6.528;2023-10-08T12:51:16;16.40;99.90
9849;DHT22;4963;51.444;6.528;2023-10-08T12:53:43;16.40;99.90
9849;DHT22;4963;51.444;6.528;2023-10-08T12:56:16;16.40;99.90
9849;DHT22;4963;51.444;6.528;2023-10-08T12:58:47;16.30;99.90
9849;DHT22;4963;51.444;6.528;2023-10-08T13:01:15;16.30;99.90
9849;DHT22;4963;51.444;6.528;2023-10-08T13:03:43;16.40;99.90
9849;DHT22;4963;51.444;6.528;2023-10-08T13:06:13;16.40;99.90
9849;DHT22;4963;51.444;6.528;2023-10-08T13:08:49;16.50;99.90
9849;DHT22;4963;51.444;6.528;2023-10-08T13:11:18;16.60;99.90
9849;DHT22;4963;51.444;6.528;2023-10-08T13:13:49;16.70;99.90
9849;DHT22;4963;51.444;6.528;2023-10-08T13:16:16;16.70;99.90
9849;DHT22;4963;51.444;6.528;2023-10-08T13:18:43;16.70;99.90
9849;DHT22;4963;51.444;6.528;2023-10-08T13:21:10;16.80;99.90
9849;DHT22;4963;51.444;6.528;2023-10-08T13:23:37;16.80;99.90
9849;DHT22;4963;51.444;6.528;2023-10-08T13:26:06;16.80;99.90
9849;DHT22;4963;51.444;6.528;2023-10-08T13:28:34;16.70;99.90
9849;DHT22;4963;51.444;6.528;2023-10-08T13:31:01;16.60;99.90
9849;DHT22;4963;51.444;6.528;2023-10-08T13:33:43;16.60;99.90
9849;DHT22;4963;51.444;6.528;2023-10-08T13:36:14;16.50;99.90
9849;DHT22;4963;51.444;6.528;2023-10-08T13:38:42;16.60;99.90
9849;DHT22;4963;51.444;6.528;2023-10-08T13:41:13;16.60;99.90
9849;DHT22;4963;51.444;6.528;2023-10-08T13:43:44;16.60;99.90
9849;DHT22;4963;51.444;6.528;2023-10-08T13:46:14;16.70;99.90
9849;DHT22;4963;51.444;6.528;2023-10-08T13:48:44;16.80;99.90
9849;DHT22;4963;51.444;6.528;2023-10-08T13:51:14;16.90;99.90
9849;DHT22;4963;51.444;6.528;2023-10-08T13:53:48;16.90;99.90
9849;DHT22;4963;51.444;6.528;2023-10-08T13:56:19;17.00;99.90
9849;DHT22;4963;51.444;6.528;2023-10-08T13:58:50;17.00;99.90
9849;DHT22;4963;51.444;6.528;2023-10-08T14:01:21;17.10;99.90
9849;DHT22;4963;51.444;6.528;2023-10-08T14:03:51;17.10;99.90
9849;DHT22;4963;51.444;6.528;2023-10-08T14:06:19;17.10;99.90
9849;DHT22;4963;51.444;6.528;2023-10-08T14:08:47;17.10;99.90
9849;DHT22;4963;51.444;6.528;2023-10-08T14:11:19;17.00;99.90
9849;DHT22;4963;51.444;6.528;2023-10-08T14:13:49;17.00;99.90
9849;DHT22;4963;51.444;6.528;2023-10-08T14:16:17;17.10;99.90
9849;DHT22;4963;51.444;6.528;2023-10-08T14:18:47;17.20;99.90
9849;DHT22;4963;51.444;6.528;2023-10-08T14:21:19;17.20;99.90
9849;DHT22;4963;51.444;6.528;2023-10-08T14:23:49;17.20;99.90
9849;DHT22;4963;51.444;6.528;2023-10-08T14:26:19;17.20;99.90
9849;DHT22;4963;51.444;6.528;2023-10-08T14:28:49;17.20;99.90
9849;DHT22;4963;51.444;6.528;2023-10-08T14:31:19;17.20;99.90
9849;DHT22;4963;51.444;6.528;2023-10-08T14:33:48;17.30;99.90
9849;DHT22;4963;51.444;6.528;2023-10-08T14:36:31;17.30;99.90
9849;DHT22;4963;51.444;6.528;2023-10-08T14:39:15;17.30;99.90
9849;DHT22;4963;51.444;6.528;2023-10-08T14:42:02;17.30;99.90
9849;DHT22;4963;51.444;6.528;2023-10-08T14:44:46;17.30;99.90
9849;DHT22;4963;51.444;6.528;2023-10-08T14:47:14;17.40;99.90
9849;DHT22;4963;51.444;6.528;2023-10-08T14:49:41;17.30;99.90
9849;DHT22;4963;51.444;6.528;2023-10-08T14:52:09;17.30;99.90
9849;DHT22;4963;51.444;6.528;2023-10-08T14:54:36;17.30;99.90
9849;DHT22;4963;51.444;6.528;2023-10-08T14:57:04;17.30;99.90
9849;DHT22;4963;51.444;6.528;2023-10-08T14:59:32;17.30;99.90
9849;DHT22;4963;51.444;6.528;2023-10-08T15:01:59;17.30;99.90
9849;DHT22;4963;51.444;6.528;2023-10-08T15:04:26;17.30;99.90
9849;DHT22;4963;51.444;6.528;2023-10-08T15:06:54;17.20;99.90
9849;DHT22;4963;51.444;6.528;2023-10-08T15:09:22;17.20;99.90
9849;DHT22;4963;51.444;6.528;2023-10-08T15:11:50;17.20;99.90
9849;DHT22;4963;51.444;6.528;2023-10-08T15:14:19;17.20;99.90
9849;DHT22;4963;51.444;6.528;2023-10-08T15:16:48;17.10;99.90
9849;DHT22;4963;51.444;6.528;2023-10-08T15:19:18;17.10;99.90
9849;DHT22;4963;51.444;6.528;2023-10-08T15:21:45;17.10;99.90
9849;DHT22;4963;51.444;6.528;2023-10-08T15:24:16;17.10;99.90
9849;DHT22;4963;51.444;6.528;2023-10-08T15:26:43;17.10;99.90
9849;DHT22;4963;51.444;6.528;2023-10-08T15:29:10;17.10;99.90
9849;DHT22;4963;51.444;6.528;2023-10-08T15:31:40;17.10;99.90
9849;DHT22;4963;51.444;6.528;2023-10-08T15:34:07;17.10;99.90
9849;DHT22;4963;51.444;6.528;2023-10-08T15:36:34;17.10;99.90
9849;DHT22;4963;51.444;6.528;2023-10-08T15:39:00;17.10;99.90
9849;DHT22;4963;51.444;6.528;2023-10-08T15:41:30;17.10;99.90
9849;DHT22;4963;51.444;6.528;2023-10-08T15:43:57;17.10;99.90
9849;DHT22;4963;51.444;6.528;2023-10-08T15:46:24;17.00;99.90
9849;DHT22;4963;51.444;6.528;2023-10-08T15:48:53;17.00;99.90
9849;DHT22;4963;51.444;6.528;2023-10-08T15:51:20;17.10;99.90
9849;DHT22;4963;51.444;6.528;2023-10-08T15:53:47;17.00;99.90
9849;DHT22;4963;51.444;6.528;2023-10-08T15:56:14;16.90;99.90
9849;DHT22;4963;51.444;6.528;2023-10-08T15:58:40;16.90;99.90
9849;DHT22;4963;51.444;6.528;2023-10-08T16:01:07;16.90;99.90
9849;DHT22;4963;51.444;6.528;2023-10-08T16:03:34;16.90;99.90
9849;DHT22;4963;51.444;6.528;2023-10-08T16:06:02;16.90;99.90
9849;DHT22;4963;51.444;6.528;2023-10-08T16:08:30;16.80;99.90
9849;DHT22;4963;51.444;6.528;2023-10-08T16:10:57;16.80;99.90
9849;DHT22;4963;51.444;6.528;2023-10-08T16:13:24;16.80;99.90
9849;DHT22;4963;51.444;6.528;2023-10-08T16:15:51;16.80;99.90
9849;DHT22;4963;51.444;6.528;2023-10-08T16:18:18;16.80;99.90
9849;DHT22;4963;51.444;6.528;2023-10-08T16:20:46;16.80;99.90
9849;DHT22;4963;51.444;6.528;2023-10-08T16:23:14;16.80;99.90
9849;DHT22;4963;51.444;6.528;2023-10-08T16:25:43;16.80;99.90
9849;DHT22;4963;51.444;6.528;2023-10-08T16:28:10;16.80;99.90